Time;durP1;ratioP1;P1;durP2;ratioP2;P2;SDS_P1;SDS_P2;PMS_P1;PMS_P2;Temp;Humidity;BMP_temperature;BMP_pressure;BME280_temperature;BME280_humidity;BME280_pressure;Samples;Min_cycle;Max_cycle;Signal;HPM_P1;HPM_P2
2021/01/31 00:01:18;;;;;;;16.60;7.82;;;;;;;-0.55;61.59;96985.78;10501773;28;20408;-53
2021/01/31 00:06:19;;;;;;;16.50;7.15;;;;;;;-0.45;61.11;96983.25;10501203;28;20041;-51
2021/01/31 00:11:21;;;;;;;18.77;7.70;;;;;;;-0.42;61.11;96970.09;10500460;28;20082;-53
2021/01/31 00:16:24;;;;;;;16.30;7.78;;;;;;;-0.39;60.94;96969.84;10501137;28;20045;-53
2021/01/31 00:21:25;;;;;;;15.80;8.07;;;;;;;-0.30;60.78;96969.06;10500681;28;20493;-51
2021/01/31 00:26:27;;;;;;;17.42;8.10;;;;;;;-0.10;60.88;96944.91;10499984;28;20040;-54
2021/01/31 00:31:30;;;;;;;19.52;9.80;;;;;;;0.05;60.45;96937.63;10499515;28;20055;-52
2021/01/31 00:36:32;;;;;;;16.45;9.40;;;;;;;0.16;60.26;96928.97;10501457;28;20143;-52
2021/01/31 00:41:33;;;;;;;20.08;9.00;;;;;;;0.25;60.30;96923.00;10499206;28;20048;-53
2021/01/31 00:46:41;;;;;;;19.00;8.68;;;;;;;0.30;59.82;96913.03;10486744;28;20102;-52
2021/01/31 00:51:47;;;;;;;17.65;8.98;;;;;;;0.26;59.85;96905.72;10460489;28;20497;-52
2021/01/31 00:56:50;;;;;;;21.40;9.63;;;;;;;0.20;60.07;96902.72;10459985;28;20135;-52
2021/01/31 01:01:53;;;;;;;17.83;9.48;;;;;;;0.22;60.04;96887.91;10458389;28;20060;-52
2021/01/31 01:06:55;;;;;;;18.08;9.63;;;;;;;0.23;60.24;96883.53;10459589;28;20118;-52
2021/01/31 01:11:57;;;;;;;20.17;10.18;;;;;;;0.29;60.10;96869.28;10459963;28;20057;-54
2021/01/31 01:17:01;;;;;;;21.38;9.07;;;;;;;0.29;60.31;96867.50;10460376;28;20057;-52
2021/01/31 01:22:03;;;;;;;22.85;11.60;;;;;;;0.34;60.47;96857.59;10459194;28;20144;-52
2021/01/31 01:27:05;;;;;;;20.55;9.27;;;;;;;0.40;60.35;96849.28;10459683;28;20147;-52
2021/01/31 01:32:08;;;;;;;19.92;9.88;;;;;;;0.45;59.98;96834.16;10458934;28;20041;-53
2021/01/31 01:37:09;;;;;;;20.92;9.85;;;;;;;0.40;60.27;96813.09;10458639;28;20136;-53
2021/01/31 01:42:13;;;;;;;20.45;10.27;;;;;;;0.43;59.93;96807.66;10463331;28;20076;-59
2021/01/31 01:47:17;;;;;;;;;;;;;;;0.47;60.17;96800.44;10460507;28;20084;-53
2021/01/31 01:52:24;;;;;;;23.67;10.47;;;;;;;0.50;59.81;96791.59;10458508;28;20023;-51
2021/01/31 01:57:29;;;;;;;23.73;10.88;;;;;;;0.54;59.76;96792.94;10458541;28;20063;-51
2021/01/31 02:02:37;;;;;;;18.67;8.55;;;;;;;0.62;59.27;96785.31;10460353;28;20401;-53
2021/01/31 02:07:39;;;;;;;17.77;9.38;;;;;;;0.50;59.98;96768.34;10457800;28;20076;-51
2021/01/31 02:12:41;;;;;;;21.80;8.90;;;;;;;0.61;59.29;96762.97;10458174;28;20385;-52
2021/01/31 02:17:58;;;;;;;20.02;10.35;;;;;;;0.40;59.58;96753.66;10456887;28;20470;-53
2021/01/31 02:23:24;;;;;;;21.67;9.52;;;;;;;0.28;60.31;96747.03;10458970;28;20140;-53
2021/01/31 02:29:04;;;;;;;21.27;10.52;;;;;;;0.25;60.56;96730.97;10459322;28;20049;-51
2021/01/31 02:34:10;;;;;;;22.77;10.80;;;;;;;0.40;60.24;96724.41;10454525;28;20057;-55
2021/01/31 02:39:24;;;;;;;23.20;10.75;;;;;;;0.43;59.88;96716.38;10465600;28;20148;-53
2021/01/31 02:44:28;;;;;;;20.58;10.00;;;;;;;0.45;59.93;96704.13;10468785;28;20080;-53
2021/01/31 02:49:33;;;;;;;19.55;9.20;;;;;;;0.53;59.72;96706.84;10466001;28;20059;-52
2021/01/31 02:54:40;;;;;;;24.55;10.40;;;;;;;0.50;60.10;96690.78;10465149;28;20048;-53
2021/01/31 02:59:51;;;;;;;24.23;11.63;;;;;;;0.48;59.69;96690.91;10464221;28;20070;-51
2021/01/31 03:04:59;;;;;;;21.42;10.32;;;;;;;0.52;59.80;96681.91;10465288;28;20073;-51
2021/01/31 03:10:07;;;;;;;25.73;12.18;;;;;;;0.51;59.95;96679.50;10464544;28;20048;-53
2021/01/31 03:15:14;;;;;;;24.73;11.70;;;;;;;0.67;59.55;96669.34;10464634;28;20052;-53
2021/01/31 03:20:22;;;;;;;29.75;11.27;;;;;;;0.84;58.62;96657.44;10464544;28;20048;-51
2021/01/31 03:25:32;;;;;;;25.25;12.07;;;;;;;0.88;58.93;96651.81;10464644;28;20135;-54
2021/01/31 03:30:34;;;;;;;31.33;13.93;;;;;;;0.89;59.24;96648.28;10463557;28;20049;-53
2021/01/31 03:35:39;;;;;;;26.77;12.32;;;;;;;0.99;58.79;96637.06;10465549;28;20536;-54
2021/01/31 03:40:44;;;;;;;27.27;12.40;;;;;;;0.97;57.68;96632.03;10465433;28;20041;-53
2021/01/31 03:45:59;;;;;;;28.05;12.70;;;;;;;0.92;58.17;96636.81;10462351;28;20045;-51
2021/01/31 03:51:02;;;;;;;30.02;14.23;;;;;;;0.93;57.79;96628.13;10462437;28;20049;-53
2021/01/31 03:56:05;;;;;;;30.38;14.00;;;;;;;0.94;58.15;96636.69;10463740;28;20056;-53
2021/01/31 04:01:08;;;;;;;29.90;14.05;;;;;;;0.82;58.18;96607.63;10461974;28;20065;-51
2021/01/31 04:06:14;;;;;;;31.83;12.98;;;;;;;0.76;57.90;96608.22;10462401;28;20048;-54
2021/01/31 04:11:30;;;;;;;27.08;13.30;;;;;;;0.73;58.23;96592.97;10461970;28;20439;-51
2021/01/31 04:16:38;;;;;;;25.77;12.25;;;;;;;0.77;58.19;96595.16;10462672;28;20063;-52
2021/01/31 04:21:41;;;;;;;29.70;13.18;;;;;;;0.83;58.00;96594.56;10461778;28;20470;-52
2021/01/31 04:26:43;;;;;;;25.85;11.90;;;;;;;0.90;57.56;96585.25;10462264;28;20137;-51
2021/01/31 04:31:44;;;;;;;25.75;13.15;;;;;;;0.93;57.83;96591.09;10461171;28;20436;-52
2021/01/31 04:36:47;;;;;;;27.95;13.60;;;;;;;0.97;57.95;96579.50;10461676;28;20386;-52
2021/01/31 04:41:49;;;;;;;28.42;13.40;;;;;;;0.93;57.72;96575.59;10460352;28;20068;-51
2021/01/31 04:46:55;;;;;;;30.85;13.43;;;;;;;0.87;57.14;96569.22;10461394;28;20049;-52
2021/01/31 04:52:06;;;;;;;29.17;14.55;;;;;;;0.73;57.81;96586.03;10461327;28;20417;-54
2021/01/31 04:57:13;;;;;;;31.05;14.80;;;;;;;0.86;57.65;96596.03;10459398;28;20045;-52
2021/01/31 05:02:20;;;;;;;26.95;14.10;;;;;;;0.93;57.78;96583.34;10460351;28;20045;-52
2021/01/31 05:07:27;;;;;;;28.40;13.98;;;;;;;0.98;57.70;96591.47;10459390;28;20447;-51
2021/01/31 05:12:39;;;;;;;35.47;13.57;;;;;;;1.02;57.71;96591.03;10459313;28;20056;-54
2021/01/31 05:17:44;;;;;;;29.25;13.32;;;;;;;1.00;57.71;96600.69;10460332;28;20040;-52
2021/01/31 05:22:49;;;;;;;30.52;14.02;;;;;;;1.06;57.63;96596.72;10459204;28;20045;-51
2021/01/31 05:27:56;;;;;;;28.20;14.75;;;;;;;1.07;57.02;96595.75;10458987;28;20072;-51
2021/01/31 05:33:07;;;;;;;30.83;14.07;;;;;;;1.08;57.29;96589.63;10461218;28;20059;-62
2021/01/31 05:38:11;;;;;;;27.83;13.75;;;;;;;1.08;57.20;96590.44;10461256;28;20051;-52
2021/01/31 05:43:14;;;;;;;;;;;;;;;1.13;57.68;96592.56;10459510;28;20045;-52
2021/01/31 05:48:22;;;;;;;31.52;14.40;;;;;;;1.25;57.67;96600.94;10458596;28;20035;-53
2021/01/31 05:53:29;;;;;;;28.50;14.15;;;;;;;1.31;57.54;96593.38;10458317;28;20075;-52
2021/01/31 05:58:31;;;;;;;30.20;13.93;;;;;;;1.26;57.34;96593.03;10457826;28;20140;-52
2021/01/31 06:03:33;;;;;;;27.63;13.57;;;;;;;1.10;57.93;96587.69;10458605;28;20040;-53
2021/01/31 06:08:36;;;;;;;26.67;12.95;;;;;;;1.13;58.31;96582.22;10468110;28;20521;-52
2021/01/31 06:13:39;;;;;;;30.83;14.43;;;;;;;1.19;57.66;96579.03;10471566;28;20392;-51
2021/01/31 06:18:44;;;;;;;28.92;13.38;;;;;;;1.14;58.05;96581.28;10474555;28;20053;-54
2021/01/31 06:23:49;;;;;;;28.83;13.70;;;;;;;1.11;57.58;96581.56;10473196;28;20051;-52
2021/01/31 06:28:58;;;;;;;24.55;13.63;;;;;;;1.10;57.98;96577.34;10471811;28;20040;-53
2021/01/31 06:33:59;;;;;;;28.02;12.10;;;;;;;1.18;57.74;96580.00;10472032;28;20458;-53
2021/01/31 06:39:20;;;;;;;29.92;14.18;;;;;;;1.31;57.93;96579.63;10471977;28;20113;-52
2021/01/31 06:44:37;;;;;;;30.20;13.50;;;;;;;1.41;57.84;96571.78;10472047;28;20068;-52
2021/01/31 06:49:55;;;;;;;29.00;14.48;;;;;;;1.55;57.58;96556.53;10471780;28;20049;-55
2021/01/31 06:55:14;;;;;;;24.98;12.32;;;;;;;1.84;57.55;96565.75;10470943;28;20042;-53
2021/01/31 07:00:29;;;;;;;32.95;14.07;;;;;;;2.09;57.15;96564.13;10470944;28;20065;-52
2021/01/31 07:05:59;;;;;;;34.70;13.75;;;;;;;2.25;57.12;96560.81;10470577;28;20045;-52
2021/01/31 07:11:20;;;;;;;29.42;14.88;;;;;;;2.47;56.84;96551.66;10471835;28;20449;-52
2021/01/31 07:16:39;;;;;;;26.63;13.52;;;;;;;2.54;56.98;96542.25;10471118;28;20041;-53
2021/01/31 07:21:49;;;;;;;28.42;14.45;;;;;;;2.57;57.47;96541.16;10464137;28;20141;-52
2021/01/31 07:26:57;;;;;;;23.70;11.50;;;;;;;2.56;57.51;96555.91;10464015;28;20076;-51
2021/01/31 07:32:03;;;;;;;21.70;11.68;;;;;;;2.61;56.92;96547.63;10465474;28;20105;-62
2021/01/31 07:37:11;;;;;;;25.30;10.35;;;;;;;2.61;56.81;96551.03;10467606;28;20049;-52
2021/01/31 07:42:17;;;;;;;18.95;9.82;;;;;;;2.68;57.21;96565.00;10464716;28;20389;-52
2021/01/31 07:47:23;;;;;;;19.33;9.95;;;;;;;2.79;56.96;96558.69;10463831;28;20045;-53
2021/01/31 07:52:28;;;;;;;23.30;10.40;;;;;;;2.94;56.07;96557.09;10463164;28;20049;-52
2021/01/31 07:57:34;;;;;;;22.17;10.77;;;;;;;3.03;56.06;96555.34;10463754;28;20045;-52
2021/01/31 08:02:40;;;;;;;19.58;10.13;;;;;;;2.96;56.61;96549.19;10462448;28;20080;-53
2021/01/31 08:08:01;;;;;;;22.73;10.85;;;;;;;2.99;56.02;96547.06;10462735;28;20061;-52
2021/01/31 08:13:04;;;;;;;27.70;11.20;;;;;;;2.88;56.72;96543.97;10461536;28;20436;-52
2021/01/31 08:18:14;;;;;;;24.55;11.35;;;;;;;3.01;56.30;96549.50;10462108;28;20049;-54
2021/01/31 08:23:54;;;;;;;25.80;11.05;;;;;;;3.04;55.99;96535.38;10462249;28;20045;-51
2021/01/31 08:28:57;;;;;;;22.58;11.60;;;;;;;2.86;56.41;96525.16;10461227;28;20135;-53
2021/01/31 08:34:02;;;;;;;28.05;12.40;;;;;;;2.93;57.20;96511.38;10462526;28;20041;-54
2021/01/31 08:39:03;;;;;;;21.00;12.05;;;;;;;3.23;56.72;96512.53;10459978;28;20059;-52
2021/01/31 08:44:52;;;;;;;25.80;12.13;;;;;;;3.41;56.50;96519.31;10460041;28;20060;-51
2021/01/31 08:49:58;;;;;;;28.75;13.52;;;;;;;3.17;56.48;96536.53;10460907;28;20053;-52
2021/01/31 08:55:05;;;;;;;24.42;13.15;;;;;;;3.18;56.38;96535.56;10461050;28;20062;-52
2021/01/31 09:00:13;;;;;;;25.50;13.15;;;;;;;3.23;56.60;96537.66;10460067;28;20069;-53
2021/01/31 09:05:18;;;;;;;26.05;11.82;;;;;;;3.54;55.85;96545.63;10459831;28;20445;-51
2021/01/31 09:10:30;;;;;;;23.80;11.30;;;;;;;3.69;55.65;96554.38;10459639;28;20125;-55
2021/01/31 09:15:33;;;;;;;22.40;11.25;;;;;;;3.60;55.55;96551.91;10459902;28;20049;-55
2021/01/31 09:20:35;;;;;;;24.93;11.63;;;;;;;3.49;55.95;96534.09;10460004;28;20049;-52
2021/01/31 09:25:39;;;;;;;32.63;12.32;;;;;;;3.45;55.71;96552.59;10459966;28;20049;-54
2021/01/31 09:30:42;;;;;;;23.27;12.25;;;;;;;3.63;56.03;96574.97;10459091;28;20052;-53
2021/01/31 09:35:44;;;;;;;25.10;11.70;;;;;;;3.64;56.05;96563.63;10459918;28;20074;-54
2021/01/31 09:40:46;;;;;;;24.60;11.40;;;;;;;3.92;55.31;96549.28;10458224;28;20504;-53
2021/01/31 09:45:52;;;;;;;21.10;11.80;;;;;;;4.05;54.50;96543.56;10458223;28;20059;-53
2021/01/31 09:50:56;;;;;;;18.92;7.97;;;;;;;3.79;54.52;96548.19;10458828;28;20128;-52
2021/01/31 09:55:58;;;;;;;16.92;7.93;;;;;;;3.57;55.21;96555.69;10458706;28;20048;-53
2021/01/31 10:01:10;;;;;;;17.67;7.88;;;;;;;3.87;55.07;96555.94;10458035;28;20099;-54
2021/01/31 10:06:15;;;;;;;16.10;7.50;;;;;;;3.94;54.32;96562.09;10458251;28;20049;-54
2021/01/31 10:11:41;;;;;;;16.55;6.97;;;;;;;3.89;54.59;96580.00;10458216;28;20044;-52
2021/01/31 10:16:44;;;;;;;14.82;6.50;;;;;;;3.83;54.32;96576.25;10457831;28;20539;-52
2021/01/31 10:21:48;;;;;;;15.23;5.78;;;;;;;3.71;54.63;96574.16;10457307;28;20071;-53
2021/01/31 10:26:50;;;;;;;11.52;5.60;;;;;;;3.60;54.35;96573.53;10457355;28;20044;-56
2021/01/31 10:31:53;;;;;;;12.50;6.30;;;;;;;3.50;54.46;96585.06;10457870;28;20057;-54
2021/01/31 10:37:12;;;;;;;15.68;6.75;;;;;;;3.43;53.69;96580.50;10457894;28;20609;-53
2021/01/31 10:42:14;;;;;;;16.95;6.60;;;;;;;3.54;53.86;96575.94;10458347;28;20083;-52
2021/01/31 10:47:17;;;;;;;16.42;6.72;;;;;;;3.51;53.72;96577.13;10457034;28;20479;-55
2021/01/31 10:52:19;;;;;;;13.25;6.97;;;;;;;3.35;53.84;96577.91;10459182;28;20083;-54
2021/01/31 10:57:20;;;;;;;14.68;6.63;;;;;;;3.20;54.42;96575.16;10465349;28;20338;-53
2021/01/31 11:02:23;;;;;;;15.68;7.15;;;;;;;3.32;54.47;96574.81;10465112;28;20059;-53
2021/01/31 11:07:25;;;;;;;14.75;7.07;;;;;;;3.26;54.07;96585.84;10464817;28;20096;-54
2021/01/31 11:12:26;;;;;;;15.70;7.03;;;;;;;3.16;54.67;96579.03;10466150;28;20473;-52
2021/01/31 11:17:29;;;;;;;12.95;6.03;;;;;;;3.05;54.52;96587.16;10464396;28;20464;-53
2021/01/31 11:22:31;;;;;;;14.40;6.32;;;;;;;3.10;54.64;96584.84;10464283;28;20075;-54
2021/01/31 11:27:32;;;;;;;12.18;6.00;;;;;;;2.99;54.43;96596.38;10463963;28;20063;-55
2021/01/31 11:32:35;;;;;;;12.65;5.97;;;;;;;2.98;54.55;96593.91;10463583;28;20049;-52
2021/01/31 11:37:37;;;;;;;13.40;6.20;;;;;;;2.60;55.20;96609.06;10467409;28;20045;-53
2021/01/31 11:42:38;;;;;;;17.52;6.85;;;;;;;2.77;54.85;96625.47;10467740;28;20049;-53
2021/01/31 11:47:43;;;;;;;13.85;7.50;;;;;;;2.99;54.88;96618.91;10465987;28;20069;-55
2021/01/31 11:52:44;;;;;;;13.57;5.93;;;;;;;2.69;55.17;96618.50;10465633;28;20049;-53
2021/01/31 11:57:46;;;;;;;15.73;7.10;;;;;;;2.36;55.75;96625.31;10462872;28;20053;-53
2021/01/31 12:02:49;;;;;;;13.13;7.00;;;;;;;2.39;55.15;96621.59;10461308;28;20489;-53
2021/01/31 12:07:51;;;;;;;14.77;7.07;;;;;;;2.53;55.05;96613.25;10460495;28;20468;-52
2021/01/31 12:12:53;;;;;;;14.48;6.18;;;;;;;2.56;54.69;96623.31;10461041;28;20041;-53
2021/01/31 12:17:55;;;;;;;11.63;6.07;;;;;;;2.30;55.26;96626.75;10465369;28;20062;-53
2021/01/31 12:22:57;;;;;;;13.88;7.10;;;;;;;2.21;55.73;96635.44;10461372;28;20049;-52
2021/01/31 12:28:00;;;;;;;12.50;6.53;;;;;;;2.21;55.38;96640.63;10460683;28;20052;-53
2021/01/31 12:33:04;;;;;;;16.65;7.95;;;;;;;2.29;55.45;96648.47;10460647;28;20055;-53
2021/01/31 12:38:06;;;;;;;16.50;7.40;;;;;;;2.30;55.41;96650.06;10460688;28;20477;-52
2021/01/31 12:43:08;;;;;;;17.33;7.72;;;;;;;2.09;55.81;96667.75;10460100;28;20049;-52
2021/01/31 12:48:10;;;;;;;13.27;6.53;;;;;;;1.78;55.85;96680.31;10478726;28;20064;-52
2021/01/31 12:53:12;;;;;;;15.88;7.50;;;;;;;1.58;56.15;96684.88;10501990;28;20438;-53
2021/01/31 12:58:14;;;;;;;21.40;8.85;;;;;;;1.68;56.29;96680.41;10501279;28;20049;-55
2021/01/31 13:03:18;;;;;;;17.35;7.32;;;;;;;1.80;55.94;96693.94;10500842;28;20057;-53
2021/01/31 13:08:20;;;;;;;16.00;8.20;;;;;;;1.72;56.48;96689.50;10502125;28;20044;-51
2021/01/31 13:13:22;;;;;;;18.60;7.97;;;;;;;1.75;56.28;96691.78;10502354;28;20067;-52
2021/01/31 13:18:24;;;;;;;16.73;7.20;;;;;;;1.63;56.52;96707.72;10500273;28;20052;-56
2021/01/31 13:23:26;;;;;;;15.63;7.65;;;;;;;1.54;56.12;96707.66;10501069;28;20044;-52
2021/01/31 13:28:27;;;;;;;16.38;8.13;;;;;;;1.45;56.24;96715.47;10502805;28;20083;-53
2021/01/31 13:33:30;;;;;;;14.88;7.40;;;;;;;1.48;56.51;96722.94;10502472;28;20049;-51
2021/01/31 13:38:32;;;;;;;14.15;7.32;;;;;;;1.46;55.97;96722.28;10501479;28;20507;-53
2021/01/31 13:43:33;;;;;;;13.10;5.72;;;;;;;1.17;55.82;96733.63;10499920;28;20135;-53
2021/01/31 13:48:36;;;;;;;13.30;6.20;;;;;;;1.04;56.60;96733.16;10500268;28;20143;-52
2021/01/31 13:53:38;;;;;;;11.55;4.75;;;;;;;0.91;56.08;96738.66;10502338;28;20045;-54
2021/01/31 13:58:40;;;;;;;13.02;5.95;;;;;;;0.74;56.68;96742.81;10499826;28;20052;-52
2021/01/31 14:03:43;;;;;;;13.13;6.05;;;;;;;0.78;56.25;96741.56;10499497;28;20140;-55
2021/01/31 14:08:44;;;;;;;13.68;6.07;;;;;;;0.82;56.23;96760.19;10501445;28;20107;-51
2021/01/31 14:13:46;;;;;;;12.77;4.93;;;;;;;0.85;56.09;96765.09;10502306;28;20049;-52
2021/01/31 14:18:49;;;;;;;14.95;5.93;;;;;;;0.85;56.17;96771.06;10501396;28;20063;-52
2021/01/31 14:23:50;;;;;;;13.35;5.63;;;;;;;0.85;55.99;96778.81;10499830;28;20139;-52
2021/01/31 14:28:52;;;;;;;11.80;5.85;;;;;;;0.84;56.29;96787.53;10501643;28;20528;-50
2021/01/31 14:33:55;;;;;;;14.27;5.57;;;;;;;0.87;55.89;96791.63;10505876;28;20052;-52
2021/01/31 14:38:58;;;;;;;15.65;5.97;;;;;;;0.86;56.40;96797.75;10507270;28;20055;-52
2021/01/31 14:43:59;;;;;;;12.20;5.32;;;;;;;0.82;56.20;96799.78;10507808;28;20075;-52
2021/01/31 14:49:02;;;;;;;10.85;4.93;;;;;;;0.81;56.15;96812.88;10503517;28;20424;-51
2021/01/31 14:54:04;;;;;;;12.02;4.78;;;;;;;0.96;55.99;96813.25;10504698;28;20048;-55
2021/01/31 14:59:06;;;;;;;11.50;5.15;;;;;;;0.99;55.57;96823.31;10504365;28;20059;-51
2021/01/31 15:04:08;;;;;;;10.52;5.00;;;;;;;0.87;55.95;96827.84;10503699;28;20477;-51
2021/01/31 15:09:10;;;;;;;12.15;5.60;;;;;;;0.91;56.20;96840.34;10501233;28;20052;-54
2021/01/31 15:14:13;;;;;;;10.63;5.20;;;;;;;0.95;55.54;96838.28;10502458;28;20159;-52
2021/01/31 15:19:15;;;;;;;11.77;5.57;;;;;;;0.89;55.91;96849.19;10502887;28;20052;-52
2021/01/31 15:24:17;;;;;;;12.23;5.72;;;;;;;0.89;55.80;96850.03;10482722;28;20510;-52
2021/01/31 15:29:19;;;;;;;12.73;5.03;;;;;;;0.93;56.29;96858.31;10508722;28;20048;-53
2021/01/31 15:34:21;;;;;;;14.05;5.45;;;;;;;0.86;56.18;96859.81;10498394;28;20044;-51
2021/01/31 15:39:23;;;;;;;13.13;5.88;;;;;;;0.87;56.06;96866.63;10501055;28;20707;-51
2021/01/31 15:44:27;;;;;;;11.27;5.50;;;;;;;0.96;56.30;96880.50;10504761;28;20378;-53
2021/01/31 15:49:30;;;;;;;12.02;4.07;;;;;;;0.89;56.17;96895.72;10505018;28;20067;-56
2021/01/31 15:54:32;;;;;;;14.32;6.32;;;;;;;0.87;56.23;96901.06;10503293;28;20120;-51
2021/01/31 15:59:34;;;;;;;13.10;4.50;;;;;;;0.85;55.99;96897.78;10504339;28;20151;-52
2021/01/31 16:04:37;;;;;;;12.40;6.10;;;;;;;0.76;56.20;96905.56;10504645;28;20055;-52
2021/01/31 16:09:39;;;;;;;13.07;5.85;;;;;;;0.75;56.37;96917.69;10504465;28;20068;-57
2021/01/31 16:14:41;;;;;;;14.35;5.93;;;;;;;0.69;55.99;96916.47;10505363;28;20098;-53
2021/01/31 16:19:43;;;;;;;12.63;5.68;;;;;;;0.64;56.53;96928.16;10501990;28;20053;-52
2021/01/31 16:24:45;;;;;;;11.82;5.47;;;;;;;0.66;56.15;96931.44;10502953;28;20053;-52
2021/01/31 16:29:46;;;;;;;11.52;4.97;;;;;;;0.72;56.48;96943.00;10495100;28;20060;-52
2021/01/31 16:34:49;;;;;;;11.45;4.78;;;;;;;0.76;56.69;96942.56;10501628;28;20109;-51
2021/01/31 16:39:52;;;;;;;7.75;3.58;;;;;;;0.83;56.19;96948.00;10501910;28;20067;-52
2021/01/31 16:44:54;;;;;;;10.63;4.53;;;;;;;0.81;56.46;96953.34;10501653;28;20053;-52
2021/01/31 16:49:56;;;;;;;12.10;5.30;;;;;;;0.89;56.38;96961.22;10500640;28;20117;-53
2021/01/31 16:54:58;;;;;;;11.90;5.30;;;;;;;0.89;56.42;96974.16;10501390;28;20071;-53
2021/01/31 16:59:59;;;;;;;10.68;5.43;;;;;;;0.80;56.92;96976.72;10501658;28;20147;-52
2021/01/31 17:05:02;;;;;;;12.45;4.13;;;;;;;0.76;57.34;96981.38;10500504;28;20040;-54
2021/01/31 17:10:06;;;;;;;9.40;4.03;;;;;;;0.88;56.82;96985.44;10500834;28;20135;-52
2021/01/31 17:15:10;;;;;;;8.55;4.05;;;;;;;0.95;56.62;96992.66;10500525;28;20040;-53
2021/01/31 17:20:14;;;;;;;8.68;3.90;;;;;;;1.05;56.31;97003.84;10499498;28;20057;-52
2021/01/31 17:25:19;;;;;;;9.45;3.47;;;;;;;1.00;56.79;97011.19;10499394;28;20499;-51
2021/01/31 17:30:24;;;;;;;6.35;3.03;;;;;;;0.94;56.69;97016.91;10496545;28;20048;-52
2021/01/31 17:35:28;;;;;;;6.05;2.95;;;;;;;0.83;56.60;97026.44;10495641;28;20053;-51
2021/01/31 17:40:29;;;;;;;;;;;;;;;0.75;56.54;97028.88;10498001;28;20100;-52
2021/01/31 17:45:32;;;;;;;7.80;3.28;;;;;;;0.67;56.70;97028.72;10497078;28;19982;-51
2021/01/31 17:50:35;;;;;;;6.15;2.38;;;;;;;0.47;57.23;97042.56;10496870;28;20051;-52
2021/01/31 17:55:36;;;;;;;8.73;3.67;;;;;;;0.35;56.92;97047.84;10497195;28;20052;-52
2021/01/31 18:00:38;;;;;;;6.78;2.78;;;;;;;0.37;56.76;97056.28;10496650;28;20362;-51
2021/01/31 18:05:41;;;;;;;6.18;2.83;;;;;;;0.38;57.07;97072.59;10498096;28;20045;-51
2021/01/31 18:10:44;;;;;;;9.63;3.03;;;;;;;0.34;56.80;97066.91;10498585;28;20056;-52
2021/01/31 18:15:46;;;;;;;6.70;3.13;;;;;;;0.29;57.22;97079.38;10498901;28;20072;-52
2021/01/31 18:20:48;;;;;;;6.75;2.88;;;;;;;0.26;57.14;97089.16;10497628;28;20060;-51
2021/01/31 18:25:50;;;;;;;6.25;2.50;;;;;;;0.23;57.48;97105.72;10497776;28;20354;-51
2021/01/31 18:30:52;;;;;;;4.68;2.33;;;;;;;0.33;56.82;97116.09;10497032;28;20075;-50
2021/01/31 18:35:55;;;;;;;6.18;2.25;;;;;;;0.42;56.99;97126.47;10497254;28;20040;-51
2021/01/31 18:40:57;;;;;;;5.35;2.38;;;;;;;0.31;57.29;97128.31;10496867;28;20080;-50
2021/01/31 18:45:58;;;;;;;5.50;2.38;;;;;;;0.32;56.88;97129.97;10496556;28;20059;-51
2021/01/31 18:51:01;;;;;;;6.28;2.75;;;;;;;0.30;56.62;97140.44;10495377;28;20061;-53
2021/01/31 18:56:03;;;;;;;5.50;2.38;;;;;;;0.29;57.06;97136.22;10495757;28;20044;-51
2021/01/31 19:01:06;;;;;;;4.82;1.75;;;;;;;0.32;56.63;97146.31;10494903;28;20060;-51
2021/01/31 19:06:08;;;;;;;4.47;1.83;;;;;;;0.44;56.30;97158.19;10495652;28;20465;-51
2021/01/31 19:11:11;;;;;;;3.13;1.33;;;;;;;0.35;56.26;97166.72;10496130;28;20044;-50
2021/01/31 19:16:12;;;;;;;6.80;1.75;;;;;;;0.33;56.46;97178.13;10499725;28;20067;-52
2021/01/31 19:21:15;;;;;;;2.60;0.80;;;;;;;0.35;56.56;97186.56;10502613;28;20056;-52
2021/01/31 19:26:17;;;;;;;3.47;1.40;;;;;;;0.26;55.99;97193.31;10504201;28;20094;-50
2021/01/31 19:31:19;;;;;;;4.43;1.60;;;;;;;0.16;55.93;97198.44;10504338;28;20370;-53
2021/01/31 19:36:21;;;;;;;4.85;1.67;;;;;;;0.11;55.81;97207.50;10503084;28;20048;-51
2021/01/31 19:41:23;;;;;;;4.93;1.95;;;;;;;-0.01;55.82;97233.41;10504659;28;20052;-58
2021/01/31 19:46:25;;;;;;;3.53;1.27;;;;;;;0.01;55.88;97232.47;10508092;28;20049;-52
2021/01/31 19:51:28;;;;;;;4.22;1.50;;;;;;;0.08;56.06;97237.00;10506735;28;20048;-51
2021/01/31 19:56:31;;;;;;;3.78;1.25;;;;;;;0.14;55.64;97252.00;10502824;28;20071;-50
2021/01/31 20:01:32;;;;;;;4.05;1.70;;;;;;;0.11;55.94;97256.59;10503874;28;20071;-59
2021/01/31 20:06:35;;;;;;;3.72;1.40;;;;;;;0.10;55.78;97271.28;10505995;28;20143;-51
2021/01/31 20:11:37;;;;;;;3.83;1.52;;;;;;;0.18;56.08;97268.06;10501242;28;20130;-51
2021/01/31 20:16:38;;;;;;;4.78;1.75;;;;;;;0.22;56.01;97274.63;10500290;28;20044;-52
2021/01/31 20:21:41;;;;;;;4.43;1.38;;;;;;;0.12;56.15;97284.06;10500631;28;20056;-52
2021/01/31 20:26:43;;;;;;;4.05;1.20;;;;;;;0.15;55.75;97294.97;10500341;28;20151;-51
2021/01/31 20:31:45;;;;;;;5.72;1.35;;;;;;;0.23;55.45;97292.59;10499178;28;20381;-50
2021/01/31 20:36:47;;;;;;;4.28;1.33;;;;;;;0.18;55.97;97304.22;10499502;28;20048;-51
2021/01/31 20:41:49;;;;;;;3.97;1.38;;;;;;;0.14;55.82;97306.25;10499110;28;20048;-50
2021/01/31 20:46:51;;;;;;;5.07;1.83;;;;;;;0.07;56.06;97322.38;10500052;28;20048;-50
2021/01/31 20:51:54;;;;;;;4.10;1.17;;;;;;;0.03;55.97;97326.13;10500435;28;20070;-57
2021/01/31 20:56:55;;;;;;;4.23;1.60;;;;;;;-0.10;56.16;97334.03;10499357;28;20103;-50
2021/01/31 21:01:57;;;;;;;5.63;1.52;;;;;;;-0.11;56.51;97356.47;10498451;28;20445;-52
2021/01/31 21:07:00;;;;;;;2.88;0.98;;;;;;;-0.03;56.26;97356.69;10497912;28;20060;-52
2021/01/31 21:12:01;;;;;;;4.07;1.60;;;;;;;-0.06;55.79;97361.28;10498498;28;20078;-50
2021/01/31 21:17:03;;;;;;;4.20;1.50;;;;;;;-0.04;56.08;97362.78;10499253;28;20374;-50
2021/01/31 21:22:06;;;;;;;4.15;1.30;;;;;;;-0.02;56.01;97366.06;10498064;28;20063;-51
2021/01/31 21:27:08;;;;;;;4.30;1.40;;;;;;;-0.02;56.20;97366.06;10500502;28;20083;-51
2021/01/31 21:32:10;;;;;;;6.53;1.65;;;;;;;0.04;55.72;97369.13;10499262;28;20045;-50
2021/01/31 21:37:13;;;;;;;4.88;1.52;;;;;;;0.03;55.71;97368.28;10499696;28;20048;-50
2021/01/31 21:42:16;;;;;;;4.63;1.60;;;;;;;0.04;55.78;97371.72;10499409;28;20106;-51
2021/01/31 21:47:18;;;;;;;4.30;1.53;;;;;;;-0.02;55.71;97384.16;10499326;28;20052;-51
2021/01/31 21:52:20;;;;;;;4.57;1.55;;;;;;;0.01;55.98;97390.84;10505164;28;20370;-52
2021/01/31 21:57:22;;;;;;;3.30;1.20;;;;;;;0.07;55.81;97399.88;10497942;28;20105;-50
2021/01/31 22:02:24;;;;;;;5.30;1.30;;;;;;;0.03;55.80;97403.63;10495359;28;20550;-54
2021/01/31 22:07:26;;;;;;;4.70;1.52;;;;;;;-0.03;55.87;97395.44;10498004;28;20052;-52
2021/01/31 22:12:28;;;;;;;4.10;1.20;;;;;;;-0.03;56.31;97397.22;10501162;28;20063;-50
2021/01/31 22:17:30;;;;;;;4.93;1.40;;;;;;;0.01;55.97;97410.69;10497562;28;20114;-50
2021/01/31 22:22:32;;;;;;;4.22;1.88;;;;;;;0.03;55.80;97419.13;10497562;28;20481;-50
2021/01/31 22:27:36;;;;;;;3.17;1.17;;;;;;;0.10;55.89;97433.22;10497543;28;20055;-51
2021/01/31 22:32:38;;;;;;;;;;;;;;;0.13;55.82;97436.38;10499053;28;20045;-50
2021/01/31 22:37:40;;;;;;;4.32;1.40;;;;;;;0.16;55.51;97440.47;10496559;28;20125;-51
2021/01/31 22:42:44;;;;;;;3.57;1.17;;;;;;;0.17;55.97;97444.69;10502901;28;20047;-51
2021/01/31 22:47:46;;;;;;;;;;;;;;;0.05;55.87;97443.09;10540003;28;20393;-51
2021/01/31 22:52:48;;;;;;;4.78;1.75;;;;;;;-0.13;55.76;97448.72;10546665;28;19972;-52
2021/01/31 22:57:50;;;;;;;3.83;1.50;;;;;;;-0.30;55.93;97460.38;10545902;28;20052;-53
2021/01/31 23:02:52;;;;;;;5.10;1.65;;;;;;;-0.39;56.13;97481.72;10546261;28;20060;-54
2021/01/31 23:07:55;;;;;;;4.35;1.52;;;;;;;-0.40;56.25;97464.59;10545102;28;20170;-50
2021/01/31 23:12:57;;;;;;;3.57;1.37;;;;;;;-0.39;56.23;97486.88;10546322;28;20044;-53
2021/01/31 23:17:59;;;;;;;3.40;1.30;;;;;;;-0.35;55.99;97492.63;10506438;28;20049;-53
2021/01/31 23:23:04;;;;;;;4.93;1.60;;;;;;;-0.25;56.57;97488.41;10505722;28;20128;-51
2021/01/31 23:28:07;;;;;;;3.55;1.17;;;;;;;-0.13;56.23;97505.53;10504889;28;20056;-51
2021/01/31 23:33:12;;;;;;;4.00;1.77;;;;;;;-0.11;56.67;97500.28;10503897;28;20063;-52